sensor_id;sensor_type;location;lat;lon;timestamp;P1;durP1;ratioP1;P2;durP2;ratioP2
23596;SDS011;40226;50.874;4.394;2023-11-19T00:01:22;0.30;;;0.30;;
23596;SDS011;40226;50.874;4.394;2023-11-19T00:03:48;0.95;;;0.63;;
23596;SDS011;40226;50.874;4.394;2023-11-19T00:06:14;0.10;;;0.10;;
23596;SDS011;40226;50.874;4.394;2023-11-19T00:08:41;0.40;;;0.40;;
23596;SDS011;40226;50.874;4.394;2023-11-19T00:11:08;0.68;;;0.60;;
23596;SDS011;40226;50.874;4.394;2023-11-19T00:13:34;0.95;;;0.95;;
23596;SDS011;40226;50.874;4.394;2023-11-19T00:16:00;3.03;;;1.35;;
23596;SDS011;40226;50.874;4.394;2023-11-19T00:18:25;0.55;;;0.38;;
23596;SDS011;40226;50.874;4.394;2023-11-19T00:20:51;0.32;;;0.32;;
23596;SDS011;40226;50.874;4.394;2023-11-19T00:23:16;0.30;;;0.30;;
23596;SDS011;40226;50.874;4.394;2023-11-19T00:25:42;3.88;;;1.40;;
23596;SDS011;40226;50.874;4.394;2023-11-19T00:28:07;1.08;;;0.47;;
23596;SDS011;40226;50.874;4.394;2023-11-19T00:30:33;0.25;;;0.25;;
23596;SDS011;40226;50.874;4.394;2023-11-19T00:32:58;0.15;;;0.15;;
23596;SDS011;40226;50.874;4.394;2023-11-19T00:35:24;0.77;;;0.77;;
23596;SDS011;40226;50.874;4.394;2023-11-19T00:37:50;0.32;;;0.32;;
23596;SDS011;40226;50.874;4.394;2023-11-19T00:40:16;0.17;;;0.17;;
23596;SDS011;40226;50.874;4.394;2023-11-19T00:42:43;0.10;;;0.10;;
23596;SDS011;40226;50.874;4.394;2023-11-19T00:45:08;2.30;;;1.00;;
23596;SDS011;40226;50.874;4.394;2023-11-19T00:47:34;0.93;;;0.85;;
23596;SDS011;40226;50.874;4.394;2023-11-19T00:50:00;1.38;;;0.98;;
23596;SDS011;40226;50.874;4.394;2023-11-19T00:52:27;0.20;;;0.20;;
23596;SDS011;40226;50.874;4.394;2023-11-19T00:54:52;1.38;;;0.98;;
23596;SDS011;40226;50.874;4.394;2023-11-19T00:57:18;0.43;;;0.43;;
23596;SDS011;40226;50.874;4.394;2023-11-19T00:59:45;1.10;;;0.93;;
23596;SDS011;40226;50.874;4.394;2023-11-19T01:02:12;1.92;;;1.08;;
23596;SDS011;40226;50.874;4.394;2023-11-19T01:04:39;0.17;;;0.17;;
23596;SDS011;40226;50.874;4.394;2023-11-19T01:07:05;0.20;;;0.20;;
23596;SDS011;40226;50.874;4.394;2023-11-19T01:09:37;0.10;;;0.10;;
23596;SDS011;40226;50.874;4.394;2023-11-19T01:12:03;0.00;;;0.00;;
23596;SDS011;40226;50.874;4.394;2023-11-19T01:14:29;0.93;;;0.93;;
23596;SDS011;40226;50.874;4.394;2023-11-19T01:16:55;7.68;;;2.00;;
23596;SDS011;40226;50.874;4.394;2023-11-19T01:19:21;2.10;;;2.00;;
23596;SDS011;40226;50.874;4.394;2023-11-19T01:21:47;0.40;;;0.40;;
23596;SDS011;40226;50.874;4.394;2023-11-19T01:24:13;0.25;;;0.25;;
23596;SDS011;40226;50.874;4.394;2023-11-19T01:26:39;0.30;;;0.30;;
23596;SDS011;40226;50.874;4.394;2023-11-19T01:29:10;0.95;;;0.95;;
23596;SDS011;40226;50.874;4.394;2023-11-19T01:31:39;0.90;;;0.85;;
23596;SDS011;40226;50.874;4.394;2023-11-19T01:34:08;0.10;;;0.10;;
23596;SDS011;40226;50.874;4.394;2023-11-19T01:36:35;0.75;;;0.70;;
23596;SDS011;40226;50.874;4.394;2023-11-19T01:39:00;0.40;;;0.40;;
23596;SDS011;40226;50.874;4.394;2023-11-19T01:41:26;0.30;;;0.30;;
23596;SDS011;40226;50.874;4.394;2023-11-19T01:43:52;2.80;;;1.40;;
23596;SDS011;40226;50.874;4.394;2023-11-19T01:46:19;7.80;;;1.90;;
23596;SDS011;40226;50.874;4.394;2023-11-19T01:48:45;0.65;;;0.65;;
23596;SDS011;40226;50.874;4.394;2023-11-19T01:51:12;1.17;;;0.60;;
23596;SDS011;40226;50.874;4.394;2023-11-19T01:53:41;1.25;;;1.15;;
23596;SDS011;40226;50.874;4.394;2023-11-19T01:56:07;1.67;;;0.95;;
23596;SDS011;40226;50.874;4.394;2023-11-19T01:58:36;11.02;;;0.82;;
23596;SDS011;40226;50.874;4.394;2023-11-19T02:01:04;0.95;;;0.75;;
23596;SDS011;40226;50.874;4.394;2023-11-19T02:03:31;0.15;;;0.15;;
23596;SDS011;40226;50.874;4.394;2023-11-19T02:05:58;0.22;;;0.22;;
23596;SDS011;40226;50.874;4.394;2023-11-19T02:08:24;20.50;;;0.95;;
23596;SDS011;40226;50.874;4.394;2023-11-19T02:10:51;0.20;;;0.20;;
23596;SDS011;40226;50.874;4.394;2023-11-19T02:13:17;0.30;;;0.30;;
23596;SDS011;40226;50.874;4.394;2023-11-19T02:15:45;0.30;;;0.30;;
23596;SDS011;40226;50.874;4.394;2023-11-19T02:18:18;3.92;;;1.27;;
23596;SDS011;40226;50.874;4.394;2023-11-19T02:20:52;0.17;;;0.17;;
23596;SDS011;40226;50.874;4.394;2023-11-19T02:23:23;1.20;;;1.02;;
23596;SDS011;40226;50.874;4.394;2023-11-19T02:31:01;0.40;;;0.32;;
23596;SDS011;40226;50.874;4.394;2023-11-19T02:33:26;0.73;;;0.73;;
23596;SDS011;40226;50.874;4.394;2023-11-19T02:35:52;1.63;;;0.80;;
23596;SDS011;40226;50.874;4.394;2023-11-19T02:38:18;0.43;;;0.43;;
23596;SDS011;40226;50.874;4.394;2023-11-19T02:40:43;0.10;;;0.10;;
23596;SDS011;40226;50.874;4.394;2023-11-19T02:43:09;0.10;;;0.10;;
23596;SDS011;40226;50.874;4.394;2023-11-19T02:45:34;0.90;;;0.73;;
23596;SDS011;40226;50.874;4.394;2023-11-19T02:48:00;1.75;;;1.52;;
23596;SDS011;40226;50.874;4.394;2023-11-19T02:50:26;3.97;;;1.75;;
23596;SDS011;40226;50.874;4.394;2023-11-19T02:52:53;0.68;;;0.68;;
23596;SDS011;40226;50.874;4.394;2023-11-19T02:55:21;0.20;;;0.20;;
23596;SDS011;40226;50.874;4.394;2023-11-19T02:57:48;0.10;;;0.10;;
23596;SDS011;40226;50.874;4.394;2023-11-19T03:00:22;0.43;;;0.43;;
23596;SDS011;40226;50.874;4.394;2023-11-19T03:02:49;0.40;;;0.40;;
23596;SDS011;40226;50.874;4.394;2023-11-19T03:05:30;0.20;;;0.20;;
23596;SDS011;40226;50.874;4.394;2023-11-19T03:07:56;1.23;;;0.85;;
23596;SDS011;40226;50.874;4.394;2023-11-19T03:10:22;3.50;;;1.15;;
23596;SDS011;40226;50.874;4.394;2023-11-19T03:12:48;11.18;;;1.85;;
23596;SDS011;40226;50.874;4.394;2023-11-19T03:15:14;0.38;;;0.38;;
23596;SDS011;40226;50.874;4.394;2023-11-19T03:17:41;3.95;;;1.63;;
23596;SDS011;40226;50.874;4.394;2023-11-19T03:20:08;3.00;;;0.75;;
23596;SDS011;40226;50.874;4.394;2023-11-19T03:22:36;0.30;;;0.30;;
23596;SDS011;40226;50.874;4.394;2023-11-19T03:25:03;0.55;;;0.55;;
23596;SDS011;40226;50.874;4.394;2023-11-19T03:27:29;0.25;;;0.25;;
23596;SDS011;40226;50.874;4.394;2023-11-19T03:29:54;0.28;;;0.25;;
23596;SDS011;40226;50.874;4.394;2023-11-19T03:32:20;0.10;;;0.10;;
23596;SDS011;40226;50.874;4.394;2023-11-19T03:34:46;0.25;;;0.25;;
23596;SDS011;40226;50.874;4.394;2023-11-19T03:37:11;3.50;;;1.73;;
23596;SDS011;40226;50.874;4.394;2023-11-19T03:39:39;0.38;;;0.38;;
23596;SDS011;40226;50.874;4.394;2023-11-19T03:42:05;0.30;;;0.30;;
23596;SDS011;40226;50.874;4.394;2023-11-19T03:44:30;0.47;;;0.47;;
23596;SDS011;40226;50.874;4.394;2023-11-19T03:46:56;0.43;;;0.43;;
23596;SDS011;40226;50.874;4.394;2023-11-19T03:49:21;0.20;;;0.20;;
23596;SDS011;40226;50.874;4.394;2023-11-19T03:51:49;4.95;;;1.38;;
23596;SDS011;40226;50.874;4.394;2023-11-19T03:54:14;0.10;;;0.10;;
23596;SDS011;40226;50.874;4.394;2023-11-19T03:56:40;2.08;;;0.57;;
23596;SDS011;40226;50.874;4.394;2023-11-19T03:59:05;0.40;;;0.40;;
23596;SDS011;40226;50.874;4.394;2023-11-19T04:01:31;1.10;;;0.95;;
23596;SDS011;40226;50.874;4.394;2023-11-19T04:03:56;2.08;;;0.75;;
23596;SDS011;40226;50.874;4.394;2023-11-19T04:06:22;0.30;;;0.20;;
23596;SDS011;40226;50.874;4.394;2023-11-19T04:08:48;5.18;;;1.75;;
23596;SDS011;40226;50.874;4.394;2023-11-19T04:11:14;1.55;;;1.02;;
23596;SDS011;40226;50.874;4.394;2023-11-19T04:13:40;1.20;;;0.90;;
23596;SDS011;40226;50.874;4.394;2023-11-19T04:16:05;0.40;;;0.40;;
23596;SDS011;40226;50.874;4.394;2023-11-19T04:18:32;0.10;;;0.10;;
23596;SDS011;40226;50.874;4.394;2023-11-19T04:20:57;0.20;;;0.20;;
23596;SDS011;40226;50.874;4.394;2023-11-19T04:23:23;0.55;;;0.55;;
23596;SDS011;40226;50.874;4.394;2023-11-19T04:25:50;2.63;;;1.70;;
23596;SDS011;40226;50.874;4.394;2023-11-19T04:28:16;1.30;;;1.20;;
23596;SDS011;40226;50.874;4.394;2023-11-19T04:30:42;3.42;;;1.45;;
23596;SDS011;40226;50.874;4.394;2023-11-19T04:33:09;0.65;;;0.65;;
23596;SDS011;40226;50.874;4.394;2023-11-19T04:35:36;1.48;;;1.17;;
23596;SDS011;40226;50.874;4.394;2023-11-19T04:38:01;0.45;;;0.45;;
23596;SDS011;40226;50.874;4.394;2023-11-19T04:40:27;0.00;;;0.00;;
23596;SDS011;40226;50.874;4.394;2023-11-19T04:42:53;4.75;;;1.00;;
23596;SDS011;40226;50.874;4.394;2023-11-19T04:45:19;0.08;;;0.08;;
23596;SDS011;40226;50.874;4.394;2023-11-19T04:47:45;0.00;;;0.00;;
23596;SDS011;40226;50.874;4.394;2023-11-19T04:50:10;0.13;;;0.13;;
23596;SDS011;40226;50.874;4.394;2023-11-19T04:52:39;0.20;;;0.20;;
23596;SDS011;40226;50.874;4.394;2023-11-19T04:57:36;0.45;;;0.40;;
23596;SDS011;40226;50.874;4.394;2023-11-19T05:00:02;0.50;;;0.50;;
23596;SDS011;40226;50.874;4.394;2023-11-19T05:02:30;1.13;;;0.57;;
23596;SDS011;40226;50.874;4.394;2023-11-19T05:04:55;0.55;;;0.55;;
23596;SDS011;40226;50.874;4.394;2023-11-19T05:07:21;16.45;;;1.35;;
23596;SDS011;40226;50.874;4.394;2023-11-19T05:09:47;0.68;;;0.68;;
23596;SDS011;40226;50.874;4.394;2023-11-19T05:12:12;3.20;;;0.80;;
23596;SDS011;40226;50.874;4.394;2023-11-19T05:14:38;6.25;;;2.42;;
23596;SDS011;40226;50.874;4.394;2023-11-19T05:17:04;0.20;;;0.20;;
23596;SDS011;40226;50.874;4.394;2023-11-19T05:19:29;0.85;;;0.85;;
23596;SDS011;40226;50.874;4.394;2023-11-19T05:21:55;7.07;;;2.47;;
23596;SDS011;40226;50.874;4.394;2023-11-19T05:24:20;2.38;;;0.68;;
23596;SDS011;40226;50.874;4.394;2023-11-19T05:26:46;1.45;;;1.20;;
23596;SDS011;40226;50.874;4.394;2023-11-19T05:29:12;0.57;;;0.57;;
23596;SDS011;40226;50.874;4.394;2023-11-19T05:31:37;2.33;;;1.27;;
23596;SDS011;40226;50.874;4.394;2023-11-19T05:34:03;0.43;;;0.43;;
23596;SDS011;40226;50.874;4.394;2023-11-19T05:36:29;1.88;;;0.98;;
23596;SDS011;40226;50.874;4.394;2023-11-19T05:38:55;0.45;;;0.45;;
23596;SDS011;40226;50.874;4.394;2023-11-19T05:41:20;1.40;;;0.90;;
23596;SDS011;40226;50.874;4.394;2023-11-19T05:43:46;5.88;;;1.50;;
23596;SDS011;40226;50.874;4.394;2023-11-19T05:46:12;4.10;;;2.08;;
23596;SDS011;40226;50.874;4.394;2023-11-19T05:48:38;3.03;;;2.08;;
23596;SDS011;40226;50.874;4.394;2023-11-19T05:51:04;1.08;;;0.77;;
23596;SDS011;40226;50.874;4.394;2023-11-19T05:53:30;2.05;;;0.77;;
23596;SDS011;40226;50.874;4.394;2023-11-19T05:55:56;0.95;;;0.85;;
23596;SDS011;40226;50.874;4.394;2023-11-19T05:58:26;2.22;;;2.03;;
23596;SDS011;40226;50.874;4.394;2023-11-19T06:00:54;0.47;;;0.47;;
23596;SDS011;40226;50.874;4.394;2023-11-19T06:03:20;0.17;;;0.17;;
23596;SDS011;40226;50.874;4.394;2023-11-19T06:05:47;11.23;;;1.65;;
23596;SDS011;40226;50.874;4.394;2023-11-19T06:08:13;4.03;;;1.70;;
23596;SDS011;40226;50.874;4.394;2023-11-19T06:10:40;15.55;;;1.33;;
23596;SDS011;40226;50.874;4.394;2023-11-19T06:13:06;1.95;;;1.50;;
23596;SDS011;40226;50.874;4.394;2023-11-19T06:15:32;0.10;;;0.10;;
23596;SDS011;40226;50.874;4.394;2023-11-19T06:17:58;0.30;;;0.30;;
23596;SDS011;40226;50.874;4.394;2023-11-19T06:20:28;0.20;;;0.20;;
23596;SDS011;40226;50.874;4.394;2023-11-19T06:22:55;4.43;;;2.38;;
23596;SDS011;40226;50.874;4.394;2023-11-19T06:25:21;0.88;;;0.88;;
23596;SDS011;40226;50.874;4.394;2023-11-19T06:27:49;1.33;;;1.23;;
23596;SDS011;40226;50.874;4.394;2023-11-19T06:30:15;3.50;;;1.23;;
23596;SDS011;40226;50.874;4.394;2023-11-19T06:32:41;0.85;;;0.85;;
23596;SDS011;40226;50.874;4.394;2023-11-19T06:35:07;0.32;;;0.32;;
23596;SDS011;40226;50.874;4.394;2023-11-19T06:37:33;0.38;;;0.38;;
23596;SDS011;40226;50.874;4.394;2023-11-19T06:39:58;0.22;;;0.17;;
23596;SDS011;40226;50.874;4.394;2023-11-19T06:42:24;0.85;;;0.85;;
23596;SDS011;40226;50.874;4.394;2023-11-19T06:44:50;1.50;;;0.73;;
23596;SDS011;40226;50.874;4.394;2023-11-19T06:47:16;0.15;;;0.15;;
23596;SDS011;40226;50.874;4.394;2023-11-19T06:49:45;9.85;;;2.50;;
23596;SDS011;40226;50.874;4.394;2023-11-19T06:52:11;0.55;;;0.55;;
23596;SDS011;40226;50.874;4.394;2023-11-19T06:54:38;2.28;;;1.55;;
23596;SDS011;40226;50.874;4.394;2023-11-19T06:57:04;0.10;;;0.10;;
23596;SDS011;40226;50.874;4.394;2023-11-19T06:59:30;0.10;;;0.10;;
23596;SDS011;40226;50.874;4.394;2023-11-19T07:01:56;1.55;;;0.57;;
23596;SDS011;40226;50.874;4.394;2023-11-19T07:04:21;39.75;;;1.95;;
23596;SDS011;40226;50.874;4.394;2023-11-19T07:06:47;0.28;;;0.28;;
23596;SDS011;40226;50.874;4.394;2023-11-19T07:09:13;5.47;;;1.25;;
23596;SDS011;40226;50.874;4.394;2023-11-19T07:11:39;1.95;;;1.65;;
23596;SDS011;40226;50.874;4.394;2023-11-19T07:14:06;2.10;;;1.58;;
23596;SDS011;40226;50.874;4.394;2023-11-19T07:16:33;1.50;;;1.40;;
23596;SDS011;40226;50.874;4.394;2023-11-19T07:19:00;1.85;;;1.25;;
23596;SDS011;40226;50.874;4.394;2023-11-19T07:21:26;0.47;;;0.43;;
23596;SDS011;40226;50.874;4.394;2023-11-19T07:23:53;2.00;;;0.95;;
23596;SDS011;40226;50.874;4.394;2023-11-19T07:26:19;0.85;;;0.85;;
23596;SDS011;40226;50.874;4.394;2023-11-19T07:28:45;0.32;;;0.32;;
23596;SDS011;40226;50.874;4.394;2023-11-19T07:31:11;4.57;;;1.30;;
23596;SDS011;40226;50.874;4.394;2023-11-19T07:33:37;0.90;;;0.90;;
23596;SDS011;40226;50.874;4.394;2023-11-19T07:36:04;3.63;;;2.10;;
23596;SDS011;40226;50.874;4.394;2023-11-19T07:38:30;1.90;;;1.17;;
23596;SDS011;40226;50.874;4.394;2023-11-19T07:40:56;0.10;;;0.10;;
23596;SDS011;40226;50.874;4.394;2023-11-19T07:43:21;1.83;;;1.30;;
23596;SDS011;40226;50.874;4.394;2023-11-19T07:45:47;2.63;;;1.65;;
23596;SDS011;40226;50.874;4.394;2023-11-19T07:48:13;8.88;;;2.38;;
23596;SDS011;40226;50.874;4.394;2023-11-19T07:50:39;0.10;;;0.10;;
23596;SDS011;40226;50.874;4.394;2023-11-19T07:53:07;0.20;;;0.20;;
23596;SDS011;40226;50.874;4.394;2023-11-19T07:55:33;0.30;;;0.30;;
23596;SDS011;40226;50.874;4.394;2023-11-19T07:57:59;0.10;;;0.10;;
23596;SDS011;40226;50.874;4.394;2023-11-19T08:00:25;6.80;;;1.27;;
23596;SDS011;40226;50.874;4.394;2023-11-19T08:02:50;2.50;;;1.17;;
23596;SDS011;40226;50.874;4.394;2023-11-19T08:05:16;1.70;;;1.58;;
23596;SDS011;40226;50.874;4.394;2023-11-19T08:07:41;2.20;;;0.90;;
23596;SDS011;40226;50.874;4.394;2023-11-19T08:10:07;1.15;;;1.10;;
23596;SDS011;40226;50.874;4.394;2023-11-19T08:12:35;1.13;;;0.88;;
23596;SDS011;40226;50.874;4.394;2023-11-19T08:15:01;0.65;;;0.63;;
23596;SDS011;40226;50.874;4.394;2023-11-19T08:17:27;0.52;;;0.45;;
23596;SDS011;40226;50.874;4.394;2023-11-19T08:19:53;39.35;;;5.25;;
23596;SDS011;40226;50.874;4.394;2023-11-19T08:22:19;38.72;;;5.65;;
23596;SDS011;40226;50.874;4.394;2023-11-19T08:24:44;41.88;;;5.32;;
23596;SDS011;40226;50.874;4.394;2023-11-19T08:27:10;36.22;;;5.75;;
23596;SDS011;40226;50.874;4.394;2023-11-19T08:29:35;44.40;;;7.07;;
23596;SDS011;40226;50.874;4.394;2023-11-19T08:32:01;38.47;;;5.13;;
23596;SDS011;40226;50.874;4.394;2023-11-19T08:34:28;33.75;;;4.88;;
23596;SDS011;40226;50.874;4.394;2023-11-19T08:36:54;46.88;;;5.70;;
23596;SDS011;40226;50.874;4.394;2023-11-19T08:39:20;38.97;;;6.30;;
23596;SDS011;40226;50.874;4.394;2023-11-19T08:41:46;32.55;;;5.50;;
23596;SDS011;40226;50.874;4.394;2023-11-19T08:44:13;31.95;;;5.40;;
23596;SDS011;40226;50.874;4.394;2023-11-19T08:46:38;29.77;;;4.82;;
23596;SDS011;40226;50.874;4.394;2023-11-19T08:49:05;37.33;;;6.70;;
23596;SDS011;40226;50.874;4.394;2023-11-19T08:51:33;36.05;;;5.78;;
23596;SDS011;40226;50.874;4.394;2023-11-19T08:53:59;2.25;;;0.65;;
23596;SDS011;40226;50.874;4.394;2023-11-19T08:56:25;0.20;;;0.20;;
23596;SDS011;40226;50.874;4.394;2023-11-19T08:58:50;1.33;;;0.45;;
23596;SDS011;40226;50.874;4.394;2023-11-19T09:01:16;0.45;;;0.45;;
23596;SDS011;40226;50.874;4.394;2023-11-19T09:03:41;0.22;;;0.22;;
23596;SDS011;40226;50.874;4.394;2023-11-19T09:06:07;6.22;;;2.58;;
23596;SDS011;40226;50.874;4.394;2023-11-19T09:08:33;9.77;;;1.77;;
23596;SDS011;40226;50.874;4.394;2023-11-19T09:10:58;4.13;;;1.38;;
23596;SDS011;40226;50.874;4.394;2023-11-19T09:13:24;0.10;;;0.10;;
23596;SDS011;40226;50.874;4.394;2023-11-19T09:15:50;0.20;;;0.20;;
23596;SDS011;40226;50.874;4.394;2023-11-19T09:18:15;0.30;;;0.30;;
23596;SDS011;40226;50.874;4.394;2023-11-19T09:20:41;0.22;;;0.22;;
23596;SDS011;40226;50.874;4.394;2023-11-19T09:23:07;0.45;;;0.45;;
23596;SDS011;40226;50.874;4.394;2023-11-19T09:25:33;2.78;;;1.40;;
23596;SDS011;40226;50.874;4.394;2023-11-19T09:27:59;3.20;;;1.55;;
23596;SDS011;40226;50.874;4.394;2023-11-19T09:30:25;4.97;;;1.67;;
23596;SDS011;40226;50.874;4.394;2023-11-19T09:32:50;4.65;;;1.50;;
23596;SDS011;40226;50.874;4.394;2023-11-19T09:35:16;1.65;;;1.00;;
23596;SDS011;40226;50.874;4.394;2023-11-19T09:37:42;0.13;;;0.13;;
23596;SDS011;40226;50.874;4.394;2023-11-19T09:40:09;0.38;;;0.38;;
23596;SDS011;40226;50.874;4.394;2023-11-19T09:42:42;0.38;;;0.38;;
23596;SDS011;40226;50.874;4.394;2023-11-19T09:45:12;0.20;;;0.20;;
23596;SDS011;40226;50.874;4.394;2023-11-19T09:47:42;0.10;;;0.10;;
23596;SDS011;40226;50.874;4.394;2023-11-19T09:50:09;0.98;;;0.82;;
23596;SDS011;40226;50.874;4.394;2023-11-19T09:52:39;0.20;;;0.20;;
23596;SDS011;40226;50.874;4.394;2023-11-19T09:55:05;0.68;;;0.55;;
23596;SDS011;40226;50.874;4.394;2023-11-19T09:57:30;2.97;;;0.40;;
23596;SDS011;40226;50.874;4.394;2023-11-19T09:59:59;1.05;;;0.95;;
23596;SDS011;40226;50.874;4.394;2023-11-19T10:02:28;0.68;;;0.50;;
23596;SDS011;40226;50.874;4.394;2023-11-19T10:04:58;3.50;;;1.60;;
23596;SDS011;40226;50.874;4.394;2023-11-19T10:07:27;0.90;;;0.80;;
23596;SDS011;40226;50.874;4.394;2023-11-19T10:09:53;0.93;;;0.57;;
23596;SDS011;40226;50.874;4.394;2023-11-19T10:12:19;0.43;;;0.43;;
23596;SDS011;40226;50.874;4.394;2023-11-19T10:14:44;1.00;;;0.60;;
23596;SDS011;40226;50.874;4.394;2023-11-19T10:17:12;3.03;;;0.95;;
23596;SDS011;40226;50.874;4.394;2023-11-19T10:19:39;0.10;;;0.10;;
23596;SDS011;40226;50.874;4.394;2023-11-19T10:22:06;13.60;;;3.50;;
23596;SDS011;40226;50.874;4.394;2023-11-19T10:24:33;10.50;;;1.00;;
23596;SDS011;40226;50.874;4.394;2023-11-19T10:26:59;1.10;;;1.05;;
23596;SDS011;40226;50.874;4.394;2023-11-19T10:29:29;1.08;;;0.55;;
23596;SDS011;40226;50.874;4.394;2023-11-19T10:31:58;0.65;;;0.65;;
23596;SDS011;40226;50.874;4.394;2023-11-19T10:34:24;14.30;;;1.15;;
23596;SDS011;40226;50.874;4.394;2023-11-19T10:36:51;4.63;;;2.38;;
23596;SDS011;40226;50.874;4.394;2023-11-19T10:39:17;0.80;;;0.80;;
23596;SDS011;40226;50.874;4.394;2023-11-19T10:41:43;10.52;;;0.85;;
23596;SDS011;40226;50.874;4.394;2023-11-19T10:44:09;4.75;;;0.90;;
23596;SDS011;40226;50.874;4.394;2023-11-19T10:46:41;0.10;;;0.10;;
23596;SDS011;40226;50.874;4.394;2023-11-19T10:49:08;0.28;;;0.28;;
23596;SDS011;40226;50.874;4.394;2023-11-19T10:51:34;0.35;;;0.35;;
23596;SDS011;40226;50.874;4.394;2023-11-19T10:54:03;8.93;;;1.17;;
23596;SDS011;40226;50.874;4.394;2023-11-19T10:56:31;0.45;;;0.45;;
23596;SDS011;40226;50.874;4.394;2023-11-19T10:58:58;2.05;;;1.70;;
23596;SDS011;40226;50.874;4.394;2023-11-19T11:01:26;0.55;;;0.55;;
23596;SDS011;40226;50.874;4.394;2023-11-19T11:03:58;8.98;;;2.90;;
23596;SDS011;40226;50.874;4.394;2023-11-19T11:06:25;2.08;;;1.35;;
23596;SDS011;40226;50.874;4.394;2023-11-19T11:08:52;2.10;;;0.98;;
23596;SDS011;40226;50.874;4.394;2023-11-19T11:11:20;22.42;;;5.50;;
23596;SDS011;40226;50.874;4.394;2023-11-19T11:13:47;29.02;;;5.07;;
23596;SDS011;40226;50.874;4.394;2023-11-19T11:16:16;27.65;;;4.65;;
23596;SDS011;40226;50.874;4.394;2023-11-19T11:18:47;31.85;;;4.82;;
23596;SDS011;40226;50.874;4.394;2023-11-19T11:21:15;24.60;;;5.70;;
23596;SDS011;40226;50.874;4.394;2023-11-19T11:27:16;22.47;;;4.20;;
23596;SDS011;40226;50.874;4.394;2023-11-19T11:30:00;27.25;;;5.20;;
23596;SDS011;40226;50.874;4.394;2023-11-19T11:32:34;27.70;;;4.45;;
23596;SDS011;40226;50.874;4.394;2023-11-19T11:35:24;27.13;;;4.43;;
23596;SDS011;40226;50.874;4.394;2023-11-19T11:38:00;33.70;;;5.35;;
23596;SDS011;40226;50.874;4.394;2023-11-19T11:40:31;25.17;;;4.53;;
23596;SDS011;40226;50.874;4.394;2023-11-19T11:42:57;35.33;;;5.55;;
23596;SDS011;40226;50.874;4.394;2023-11-19T11:45:39;32.28;;;5.60;;
23596;SDS011;40226;50.874;4.394;2023-11-19T11:48:11;32.28;;;5.22;;
23596;SDS011;40226;50.874;4.394;2023-11-19T11:50:56;36.00;;;6.43;;
23596;SDS011;40226;50.874;4.394;2023-11-19T11:53:23;34.10;;;5.85;;
23596;SDS011;40226;50.874;4.394;2023-11-19T11:58:20;36.50;;;7.07;;
23596;SDS011;40226;50.874;4.394;2023-11-19T12:00:47;19.48;;;3.53;;
23596;SDS011;40226;50.874;4.394;2023-11-19T12:03:13;32.78;;;5.95;;
23596;SDS011;40226;50.874;4.394;2023-11-19T12:05:46;33.42;;;5.47;;
23596;SDS011;40226;50.874;4.394;2023-11-19T12:08:13;26.27;;;4.53;;
23596;SDS011;40226;50.874;4.394;2023-11-19T12:10:48;27.85;;;4.13;;
23596;SDS011;40226;50.874;4.394;2023-11-19T12:13:16;31.58;;;4.75;;
23596;SDS011;40226;50.874;4.394;2023-11-19T12:18:28;23.98;;;4.13;;
23596;SDS011;40226;50.874;4.394;2023-11-19T12:20:56;22.33;;;4.68;;
23596;SDS011;40226;50.874;4.394;2023-11-19T12:23:25;18.55;;;4.72;;
23596;SDS011;40226;50.874;4.394;2023-11-19T12:25:51;18.02;;;3.67;;
23596;SDS011;40226;50.874;4.394;2023-11-19T12:28:17;20.88;;;3.78;;
23596;SDS011;40226;50.874;4.394;2023-11-19T12:30:43;23.10;;;3.92;;
23596;SDS011;40226;50.874;4.394;2023-11-19T12:33:10;19.02;;;4.32;;
23596;SDS011;40226;50.874;4.394;2023-11-19T12:35:40;20.98;;;3.90;;
23596;SDS011;40226;50.874;4.394;2023-11-19T12:38:07;23.35;;;5.03;;
23596;SDS011;40226;50.874;4.394;2023-11-19T12:40:33;29.05;;;4.78;;
23596;SDS011;40226;50.874;4.394;2023-11-19T12:42:59;24.20;;;4.57;;
23596;SDS011;40226;50.874;4.394;2023-11-19T12:45:25;27.08;;;4.68;;
23596;SDS011;40226;50.874;4.394;2023-11-19T12:48:09;23.00;;;4.10;;
23596;SDS011;40226;50.874;4.394;2023-11-19T12:53:20;31.60;;;5.03;;
23596;SDS011;40226;50.874;4.394;2023-11-19T12:55:46;27.42;;;5.22;;
23596;SDS011;40226;50.874;4.394;2023-11-19T12:58:31;30.17;;;5.57;;
23596;SDS011;40226;50.874;4.394;2023-11-19T13:01:05;32.03;;;5.28;;
23596;SDS011;40226;50.874;4.394;2023-11-19T13:03:32;29.80;;;5.45;;
23596;SDS011;40226;50.874;4.394;2023-11-19T13:08:44;30.60;;;5.00;;
23596;SDS011;40226;50.874;4.394;2023-11-19T13:11:11;36.65;;;6.68;;
23596;SDS011;40226;50.874;4.394;2023-11-19T13:13:56;26.95;;;5.10;;
23596;SDS011;40226;50.874;4.394;2023-11-19T13:16:27;26.63;;;4.88;;
23596;SDS011;40226;50.874;4.394;2023-11-19T13:18:54;29.92;;;5.95;;
23596;SDS011;40226;50.874;4.394;2023-11-19T13:21:20;24.20;;;4.53;;
23596;SDS011;40226;50.874;4.394;2023-11-19T13:23:45;27.20;;;5.85;;
23596;SDS011;40226;50.874;4.394;2023-11-19T13:26:11;28.60;;;4.75;;
23596;SDS011;40226;50.874;4.394;2023-11-19T13:28:38;26.00;;;4.82;;
23596;SDS011;40226;50.874;4.394;2023-11-19T13:31:04;29.88;;;4.30;;
23596;SDS011;40226;50.874;4.394;2023-11-19T13:33:30;26.92;;;5.13;;
23596;SDS011;40226;50.874;4.394;2023-11-19T13:35:55;26.20;;;4.85;;
23596;SDS011;40226;50.874;4.394;2023-11-19T13:38:21;26.77;;;5.65;;
23596;SDS011;40226;50.874;4.394;2023-11-19T13:40:49;26.92;;;4.55;;
23596;SDS011;40226;50.874;4.394;2023-11-19T13:43:16;28.55;;;5.13;;
23596;SDS011;40226;50.874;4.394;2023-11-19T13:45:41;25.63;;;5.65;;
23596;SDS011;40226;50.874;4.394;2023-11-19T13:48:07;33.20;;;5.47;;
23596;SDS011;40226;50.874;4.394;2023-11-19T13:50:32;31.15;;;5.65;;
23596;SDS011;40226;50.874;4.394;2023-11-19T13:52:59;27.40;;;5.40;;
23596;SDS011;40226;50.874;4.394;2023-11-19T13:55:25;32.08;;;5.30;;
23596;SDS011;40226;50.874;4.394;2023-11-19T13:57:52;30.85;;;6.00;;
23596;SDS011;40226;50.874;4.394;2023-11-19T14:00:18;28.13;;;5.20;;
23596;SDS011;40226;50.874;4.394;2023-11-19T14:02:47;26.55;;;5.55;;
23596;SDS011;40226;50.874;4.394;2023-11-19T14:05:13;35.05;;;6.45;;
23596;SDS011;40226;50.874;4.394;2023-11-19T14:07:40;35.30;;;5.93;;
23596;SDS011;40226;50.874;4.394;2023-11-19T14:10:07;23.63;;;4.90;;
23596;SDS011;40226;50.874;4.394;2023-11-19T14:12:38;38.90;;;5.80;;
23596;SDS011;40226;50.874;4.394;2023-11-19T14:15:05;27.13;;;6.05;;
23596;SDS011;40226;50.874;4.394;2023-11-19T14:17:31;25.33;;;4.85;;
23596;SDS011;40226;50.874;4.394;2023-11-19T14:19:57;34.97;;;5.68;;
23596;SDS011;40226;50.874;4.394;2023-11-19T14:22:23;27.50;;;5.93;;
23596;SDS011;40226;50.874;4.394;2023-11-19T14:24:49;26.50;;;5.63;;
23596;SDS011;40226;50.874;4.394;2023-11-19T14:27:15;32.92;;;5.63;;
23596;SDS011;40226;50.874;4.394;2023-11-19T14:29:42;35.67;;;5.22;;
23596;SDS011;40226;50.874;4.394;2023-11-19T14:32:11;32.30;;;5.93;;
23596;SDS011;40226;50.874;4.394;2023-11-19T14:34:36;43.28;;;6.82;;
23596;SDS011;40226;50.874;4.394;2023-11-19T14:37:02;35.75;;;5.63;;
23596;SDS011;40226;50.874;4.394;2023-11-19T14:39:28;38.25;;;7.25;;
23596;SDS011;40226;50.874;4.394;2023-11-19T14:41:57;45.22;;;8.00;;
23596;SDS011;40226;50.874;4.394;2023-11-19T14:44:29;37.83;;;6.10;;
23596;SDS011;40226;50.874;4.394;2023-11-19T14:47:02;34.50;;;6.22;;
23596;SDS011;40226;50.874;4.394;2023-11-19T14:49:27;35.55;;;5.80;;
23596;SDS011;40226;50.874;4.394;2023-11-19T14:51:53;38.83;;;6.32;;
23596;SDS011;40226;50.874;4.394;2023-11-19T14:54:18;33.65;;;6.85;;
23596;SDS011;40226;50.874;4.394;2023-11-19T14:56:44;40.05;;;6.72;;
23596;SDS011;40226;50.874;4.394;2023-11-19T14:59:10;34.85;;;6.22;;
23596;SDS011;40226;50.874;4.394;2023-11-19T15:01:35;32.80;;;6.25;;
23596;SDS011;40226;50.874;4.394;2023-11-19T15:04:01;37.55;;;6.43;;